createdAt,value
2022-11-19T00:00:39.528Z,30.33
2022-11-19T00:03:40.578Z,32.72
2022-11-19T00:06:41.547Z,30.10
2022-11-19T00:09:42.559Z,30.63
2022-11-19T00:13:02.523Z,27.55
2022-11-19T00:16:03.532Z,28.73
2022-11-19T00:19:04.521Z,36.08
2022-11-19T00:22:05.738Z,25.23
2022-11-19T00:25:06.526Z,15.68
2022-11-19T00:28:07.547Z,32.03
2022-11-19T00:31:08.532Z,29.83
2022-11-19T00:34:09.531Z,31.00
2022-11-19T00:37:10.558Z,27.27
2022-11-19T00:40:11.568Z,25.65
2022-11-19T00:43:30.527Z,26.17
2022-11-19T00:46:33.513Z,24.85
2022-11-19T00:49:34.592Z,30.83
2022-11-19T00:52:35.517Z,26.10
2022-11-19T00:55:36.532Z,28.90
2022-11-19T00:58:37.545Z,29.13
2022-11-19T01:01:39.581Z,29.23
2022-11-19T01:04:40.563Z,30.45
2022-11-19T01:07:41.534Z,35.47
2022-11-19T01:10:42.533Z,30.08
2022-11-19T01:13:43.584Z,31.95
2022-11-19T01:16:49.515Z,31.55
2022-11-19T01:19:50.559Z,33.72
2022-11-19T01:22:52.534Z,30.58
2022-11-19T01:25:53.536Z,30.35
2022-11-19T01:28:54.575Z,26.27
2022-11-19T01:31:55.589Z,32.40
2022-11-19T01:34:56.552Z,26.38
2022-11-19T01:37:57.562Z,32.05
2022-11-19T01:40:58.542Z,34.00
2022-11-19T01:44:09.551Z,24.58
2022-11-19T01:47:10.638Z,32.58
2022-11-19T01:50:11.555Z,41.35
2022-11-19T01:53:15.555Z,35.28
2022-11-19T01:56:17.616Z,32.80
2022-11-19T01:59:22.755Z,40.65
2022-11-19T02:02:23.539Z,34.08
2022-11-19T02:05:24.571Z,36.80
2022-11-19T02:08:51.583Z,39.83
2022-11-19T02:12:13.558Z,32.15
2022-11-19T02:15:19.691Z,29.45
2022-11-19T02:18:23.567Z,36.53
2022-11-19T02:21:34.566Z,38.83
2022-11-19T02:25:05.566Z,34.20
2022-11-19T02:28:24.589Z,32.45
2022-11-19T02:31:29.574Z,34.85
2022-11-19T02:34:41.559Z,36.20
2022-11-19T02:37:58.595Z,34.08
2022-11-19T02:41:03.573Z,33.17
2022-11-19T02:44:28.612Z,38.13
2022-11-19T02:47:38.574Z,42.17
2022-11-19T02:50:51.641Z,46.72
2022-11-19T02:53:52.569Z,37.55
2022-11-19T02:57:05.576Z,37.25
2022-11-19T03:00:33.587Z,42.30
2022-11-19T03:03:53.610Z,41.38
2022-11-19T03:06:54.676Z,46.63
2022-11-19T03:09:59.566Z,48.42
2022-11-19T03:13:34.590Z,46.40
2022-11-19T03:16:50.591Z,48.85
2022-11-19T03:19:59.573Z,48.35
2022-11-19T03:23:07.589Z,41.58
2022-11-19T03:26:18.576Z,55.85
2022-11-19T03:29:22.580Z,60.95
2022-11-19T03:32:35.707Z,47.72
2022-11-19T03:35:41.648Z,53.88
2022-11-19T03:38:45.656Z,62.20
2022-11-19T03:41:47.643Z,59.78
2022-11-19T03:44:59.654Z,57.83
2022-11-19T03:48:03.632Z,60.67
2022-11-19T03:51:08.690Z,58.28
2022-11-19T03:54:09.636Z,69.10
2022-11-19T03:57:11.677Z,69.40
2022-11-19T04:00:12.705Z,59.38
2022-11-19T04:03:14.711Z,61.47
2022-11-19T04:06:16.681Z,65.63
2022-11-19T04:09:17.951Z,68.45
2022-11-19T04:12:18.700Z,67.80
2022-11-19T04:15:19.682Z,73.30
2022-11-19T04:18:20.676Z,63.47
2022-11-19T04:21:22.815Z,71.70
2022-11-19T04:24:23.666Z,73.88
2022-11-19T04:27:24.670Z,70.75
2022-11-19T04:30:25.672Z,79.13
2022-11-19T04:33:26.704Z,71.60
2022-11-19T04:36:27.690Z,76.38
2022-11-19T04:39:28.644Z,75.22
2022-11-19T04:42:29.682Z,65.45
2022-11-19T04:45:30.638Z,77.13
2022-11-19T04:48:31.665Z,71.97
2022-11-19T04:51:32.683Z,75.95
2022-11-19T04:54:33.662Z,52.47
2022-11-19T04:57:34.688Z,76.35
2022-11-19T05:00:35.672Z,65.15
2022-11-19T05:03:36.907Z,61.78
2022-11-19T05:06:37.722Z,67.25
2022-11-19T05:09:38.616Z,68.50
2022-11-19T05:12:39.686Z,76.18
2022-11-19T05:15:40.697Z,74.75
2022-11-19T05:18:34.736Z,68.72
2022-11-19T05:21:35.694Z,72.80
2022-11-19T05:24:36.693Z,67.75
2022-11-19T05:27:37.758Z,81.55
2022-11-19T05:30:38.674Z,84.03
2022-11-19T05:33:39.675Z,92.93
2022-11-19T05:36:40.712Z,73.75
2022-11-19T05:39:41.622Z,68.20
2022-11-19T05:42:42.734Z,72.88
2022-11-19T05:45:43.704Z,75.53
2022-11-19T05:48:44.705Z,72.13
2022-11-19T05:51:45.679Z,79.47
2022-11-19T05:54:46.709Z,62.97
2022-11-19T05:57:47.696Z,84.85
2022-11-19T06:00:48.727Z,73.53
2022-11-19T06:03:49.704Z,75.75
2022-11-19T06:06:50.784Z,83.10
2022-11-19T06:09:51.727Z,80.20
2022-11-19T06:12:52.698Z,77.43
2022-11-19T06:15:53.929Z,70.95
2022-11-19T06:18:54.724Z,76.25
2022-11-19T06:21:56.752Z,69.00
2022-11-19T06:24:57.745Z,73.57
2022-11-19T06:27:58.732Z,80.35
2022-11-19T06:30:59.689Z,69.03
2022-11-19T06:34:00.679Z,80.10
2022-11-19T06:37:01.694Z,66.97
2022-11-19T06:40:02.686Z,78.93
2022-11-19T06:43:03.697Z,75.75
2022-11-19T06:46:04.718Z,68.18
2022-11-19T06:49:05.722Z,75.75
2022-11-19T06:52:06.730Z,71.80
2022-11-19T06:55:07.699Z,68.95
2022-11-19T06:58:08.716Z,56.75
2022-11-19T07:01:09.716Z,74.90
2022-11-19T07:04:10.694Z,67.95
2022-11-19T07:07:11.784Z,69.22
2022-11-19T07:10:12.685Z,65.38
2022-11-19T07:13:14.747Z,66.53
2022-11-19T07:16:16.718Z,77.25
2022-11-19T07:19:19.969Z,56.83
2022-11-19T07:22:20.761Z,66.07
2022-11-19T07:25:22.728Z,69.07
2022-11-19T07:28:23.745Z,68.07
2022-11-19T07:31:24.947Z,67.00
2022-11-19T07:34:25.713Z,70.63
2022-11-19T07:37:26.736Z,68.13
2022-11-19T07:40:27.775Z,60.90
2022-11-19T07:43:28.710Z,67.43
2022-11-19T07:46:29.746Z,62.63
2022-11-19T07:49:31.735Z,67.88
2022-11-19T07:52:32.728Z,73.00
2022-11-19T07:55:33.705Z,63.65
2022-11-19T07:58:34.738Z,64.82
2022-11-19T08:01:37.816Z,62.42
2022-11-19T08:04:41.748Z,61.40
2022-11-19T08:07:42.824Z,61.20
2022-11-19T08:10:43.790Z,56.53
2022-11-19T08:13:44.744Z,56.15
2022-11-19T08:17:04.773Z,67.50
2022-11-19T08:20:05.759Z,62.65
2022-11-19T08:23:06.779Z,63.13
2022-11-19T08:26:08.760Z,55.22
2022-11-19T08:29:15.789Z,60.10
2022-11-19T08:32:16.799Z,59.75
2022-11-19T08:35:17.758Z,62.60
2022-11-19T08:38:18.732Z,59.85
2022-11-19T08:41:37.754Z,51.17
2022-11-19T08:44:38.716Z,56.90
2022-11-19T08:47:39.730Z,55.03
2022-11-19T08:50:41.775Z,58.17
2022-11-19T08:53:42.749Z,54.80
2022-11-19T08:56:45.740Z,54.60
2022-11-19T08:59:39.748Z,54.50
2022-11-19T09:02:40.789Z,51.72
2022-11-19T09:05:41.780Z,56.08
2022-11-19T09:08:42.778Z,53.45
2022-11-19T09:11:43.840Z,49.97
2022-11-19T09:14:44.767Z,47.08
2022-11-19T09:17:47.144Z,47.67
2022-11-19T09:20:48.758Z,46.15
2022-11-19T09:23:49.792Z,53.35
2022-11-19T09:26:52.964Z,48.33
2022-11-19T09:29:53.776Z,42.78
2022-11-19T09:32:54.747Z,47.40
2022-11-19T09:35:55.755Z,48.13
2022-11-19T09:38:56.751Z,48.13
2022-11-19T09:42:02.772Z,43.65
2022-11-19T09:45:08.762Z,48.88
2022-11-19T09:48:11.763Z,45.75
2022-11-19T09:51:16.933Z,37.75
2022-11-19T09:54:24.955Z,47.28
2022-11-19T09:57:28.768Z,46.17
2022-11-19T10:00:34.798Z,42.70
2022-11-19T10:03:37.012Z,50.33
2022-11-19T10:06:42.780Z,46.67
2022-11-19T10:09:52.899Z,47.50
2022-11-19T10:13:30.954Z,48.78
2022-11-19T10:16:56.809Z,49.35
2022-11-19T10:20:31.777Z,45.38
2022-11-19T10:23:41.797Z,50.28
2022-11-19T10:26:51.817Z,42.50
2022-11-19T10:29:53.795Z,46.55
2022-11-19T10:32:57.831Z,47.35
2022-11-19T10:36:08.765Z,42.42
2022-11-19T10:39:32.807Z,42.33
2022-11-19T10:42:43.781Z,44.20
2022-11-19T10:45:44.776Z,43.00
2022-11-19T10:48:55.775Z,42.70
2022-11-19T10:51:56.805Z,50.10
2022-11-19T10:54:58.773Z,40.17
2022-11-19T10:58:01.799Z,44.97
2022-11-19T11:01:02.845Z,50.97
2022-11-19T11:04:28.798Z,49.80
2022-11-19T11:07:29.824Z,48.55
2022-11-19T11:10:42.800Z,41.35
2022-11-19T11:14:09.825Z,53.97
2022-11-19T11:17:10.803Z,44.53
2022-11-19T11:20:34.836Z,50.83
2022-11-19T11:23:37.789Z,48.03
2022-11-19T11:26:41.793Z,46.15
2022-11-19T11:29:42.795Z,43.25
2022-11-19T11:32:44.788Z,40.08
2022-11-19T11:35:47.857Z,42.92
2022-11-19T11:38:56.829Z,49.30
2022-11-19T11:42:07.644Z,42.22
2022-11-19T11:45:11.878Z,48.70
2022-11-19T11:48:19.808Z,39.42
2022-11-19T11:51:20.826Z,45.80
2022-11-19T11:54:34.811Z,41.90
2022-11-19T11:57:49.801Z,38.05
2022-11-19T12:00:55.794Z,41.13
2022-11-19T12:04:12.827Z,41.70
2022-11-19T12:07:25.902Z,35.88
2022-11-19T12:10:53.812Z,36.13
2022-11-19T12:14:21.851Z,39.90
2022-11-19T12:17:43.876Z,34.60
2022-11-19T12:21:00.798Z,38.60
2022-11-19T12:24:25.827Z,34.67
2022-11-19T12:27:47.850Z,37.58
2022-11-19T12:31:11.860Z,39.25
2022-11-19T12:34:40.838Z,35.17
2022-11-19T12:37:46.831Z,39.45
2022-11-19T12:41:32.807Z,43.47
2022-11-19T12:44:57.936Z,34.95
2022-11-19T12:48:19.819Z,34.47
2022-11-19T12:51:29.803Z,37.85
2022-11-19T12:55:01.831Z,34.47
2022-11-19T12:58:39.819Z,32.22
2022-11-19T13:01:44.860Z,30.13
2022-11-19T13:04:51.862Z,33.08
2022-11-19T13:07:57.822Z,28.50
2022-11-19T13:11:13.821Z,30.88
2022-11-19T13:14:18.867Z,25.98
2022-11-19T13:17:28.867Z,32.90
2022-11-19T13:20:35.867Z,28.60
2022-11-19T13:23:54.893Z,27.88
2022-11-19T13:26:55.859Z,30.40
2022-11-19T13:30:01.085Z,30.60
2022-11-19T13:33:36.854Z,27.85
2022-11-19T13:36:44.863Z,27.88
2022-11-19T13:39:54.803Z,30.17
2022-11-19T13:46:55.825Z,25.83
2022-11-19T13:50:21.036Z,24.70
2022-11-19T13:53:28.843Z,32.15
2022-11-19T13:56:29.871Z,27.00
2022-11-19T13:59:53.873Z,25.00
2022-11-19T14:02:58.857Z,26.23
2022-11-19T14:06:11.862Z,21.50
2022-11-19T14:09:41.851Z,24.95
2022-11-19T14:12:43.891Z,29.50
2022-11-19T14:16:14.863Z,26.77
2022-11-19T14:19:36.876Z,25.65
2022-11-19T14:23:25.891Z,27.52
2022-11-19T14:26:55.856Z,24.77
2022-11-19T14:29:59.909Z,24.33
2022-11-19T14:32:56.902Z,27.88
2022-11-19T14:35:57.828Z,26.33
2022-11-19T14:39:08.004Z,24.02
2022-11-19T14:42:34.350Z,32.47
2022-11-19T14:45:34.943Z,24.27
2022-11-19T14:48:35.983Z,28.23
2022-11-19T14:51:51.822Z,27.60
2022-11-19T14:54:56.852Z,30.02
2022-11-19T14:57:57.847Z,26.02
2022-11-19T15:00:58.875Z,24.95
2022-11-19T15:04:05.825Z,24.17
2022-11-19T15:07:06.893Z,26.02
2022-11-19T15:10:36.894Z,27.17
2022-11-19T15:13:41.873Z,24.05
2022-11-19T15:16:42.832Z,22.13
2022-11-19T15:20:06.879Z,23.13
2022-11-19T15:23:47.891Z,26.98
2022-11-19T15:26:55.872Z,25.73
2022-11-19T15:30:12.862Z,23.40
2022-11-19T15:33:31.897Z,23.40
2022-11-19T15:37:03.834Z,23.00
2022-11-19T15:40:05.889Z,26.17
2022-11-19T15:43:11.878Z,26.40
2022-11-19T15:46:19.883Z,31.38
2022-11-19T15:49:39.874Z,24.75
2022-11-19T15:52:44.884Z,25.23
2022-11-19T15:55:45.890Z,23.85
2022-11-19T15:58:42.950Z,25.65
2022-11-19T16:01:43.916Z,24.17
2022-11-19T16:04:49.907Z,23.10
2022-11-19T16:07:50.904Z,23.23
2022-11-19T16:11:20.777Z,23.05
2022-11-19T16:14:53.915Z,25.77
2022-11-19T16:18:00.918Z,29.00
2022-11-19T16:21:03.903Z,25.20
2022-11-19T16:24:23.619Z,27.83
2022-11-19T16:27:29.919Z,26.48
2022-11-19T16:30:33.057Z,26.92
2022-11-19T16:33:36.066Z,27.35
2022-11-19T16:36:38.943Z,26.40
2022-11-19T16:39:40.906Z,26.38
2022-11-19T16:42:41.884Z,26.38
2022-11-19T16:45:43.885Z,25.50
2022-11-19T16:49:07.939Z,20.35
2022-11-19T16:52:09.975Z,27.60
2022-11-19T16:55:12.854Z,23.38
2022-11-19T16:58:15.920Z,25.88
2022-11-19T17:01:16.969Z,27.33
2022-11-19T17:04:21.203Z,23.95
2022-11-19T17:07:25.973Z,26.15
2022-11-19T17:10:26.835Z,26.02
2022-11-19T17:13:41.934Z,25.38
2022-11-19T17:16:42.926Z,26.73
2022-11-19T17:19:47.916Z,23.52
2022-11-19T17:22:48.942Z,24.45
2022-11-19T17:26:07.925Z,28.83
2022-11-19T17:29:26.889Z,23.27
2022-11-19T17:32:27.950Z,24.10
2022-11-19T17:35:48.015Z,21.48
2022-11-19T17:38:41.925Z,27.50
2022-11-19T17:42:00.881Z,24.73
2022-11-19T17:45:06.031Z,24.73
2022-11-19T17:48:09.921Z,25.25
2022-11-19T17:51:10.895Z,31.80
2022-11-19T17:54:11.893Z,27.45
2022-11-19T17:57:12.922Z,23.73
2022-11-19T18:00:13.896Z,25.08
2022-11-19T18:03:14.943Z,26.25
2022-11-19T18:06:15.888Z,27.63
2022-11-19T18:09:19.449Z,28.48
2022-11-19T18:12:25.936Z,25.77
2022-11-19T18:15:30.022Z,26.30
2022-11-19T18:18:23.935Z,24.65
2022-11-19T18:21:26.897Z,26.27
2022-11-19T18:24:27.975Z,26.77
2022-11-19T18:27:28.921Z,24.63
2022-11-19T18:30:29.945Z,27.73
2022-11-19T18:33:31.001Z,28.67
2022-11-19T18:36:31.929Z,25.48
2022-11-19T18:39:33.033Z,27.25
2022-11-19T18:42:33.961Z,25.73
2022-11-19T18:45:34.904Z,26.20
2022-11-19T18:48:35.929Z,30.30
2022-11-19T18:51:36.929Z,30.13
2022-11-19T18:54:37.926Z,28.30
2022-11-19T18:57:38.918Z,30.05
2022-11-19T19:00:39.925Z,29.83
2022-11-19T19:03:40.930Z,42.35
2022-11-19T19:06:41.928Z,27.20
2022-11-19T19:09:43.920Z,30.08
2022-11-19T19:12:44.963Z,28.30
2022-11-19T19:15:45.934Z,27.13
2022-11-19T19:18:46.942Z,29.70
2022-11-19T19:21:47.968Z,28.48
2022-11-19T19:24:50.733Z,29.85
2022-11-19T19:27:52.956Z,31.23
2022-11-19T19:30:53.941Z,36.00
2022-11-19T19:33:54.987Z,22.48
2022-11-19T19:36:55.971Z,29.40
2022-11-19T19:39:56.967Z,27.20
2022-11-19T19:42:57.923Z,31.60
2022-11-19T19:45:51.946Z,30.38
2022-11-19T19:48:52.959Z,31.23
2022-11-19T19:51:53.928Z,30.52
2022-11-19T19:54:54.923Z,30.17
2022-11-19T19:57:55.933Z,31.08
2022-11-19T20:00:57.963Z,29.42
2022-11-19T20:03:58.960Z,29.00
2022-11-19T20:07:01.085Z,30.20
2022-11-19T20:10:01.996Z,25.40
2022-11-19T20:13:21.413Z,31.02
2022-11-19T20:16:22.984Z,28.55
2022-11-19T20:19:27.997Z,31.25
2022-11-19T20:22:29.162Z,28.08
2022-11-19T20:25:30.048Z,27.90
2022-11-19T20:28:30.989Z,31.77
2022-11-19T20:31:32.965Z,30.73
2022-11-19T20:34:33.979Z,30.52
2022-11-19T20:37:34.958Z,32.00
2022-11-19T20:40:36.964Z,35.25
2022-11-19T20:43:56.964Z,29.15
2022-11-19T20:46:57.967Z,37.17
2022-11-19T20:49:58.944Z,29.27
2022-11-19T20:52:59.981Z,33.97
2022-11-19T20:56:05.268Z,34.55
2022-11-19T20:59:05.983Z,35.70
2022-11-19T21:02:08.018Z,35.05
2022-11-19T21:05:08.956Z,33.13
2022-11-19T21:08:09.958Z,31.75
2022-11-19T21:11:18.970Z,35.42
2022-11-19T21:14:19.965Z,35.17
2022-11-19T21:17:21.036Z,39.45
2022-11-19T21:20:22.031Z,33.95
2022-11-19T21:23:22.987Z,35.60
2022-11-19T21:26:31.013Z,38.00
2022-11-19T21:29:31.974Z,38.05
2022-11-19T21:32:33.015Z,40.70
2022-11-19T21:35:34.047Z,37.95
2022-11-19T21:38:35.002Z,33.33
2022-11-19T21:41:15.694Z,36.88
2022-11-19T21:43:43.098Z,34.78
2022-11-19T21:46:09.738Z,33.78
2022-11-19T21:48:38.374Z,33.58
2022-11-19T21:51:07.512Z,34.03
2022-11-19T21:53:35.383Z,34.58
2022-11-19T21:56:02.285Z,35.28
2022-11-19T21:58:29.040Z,34.60
2022-11-19T22:01:00.191Z,34.42
2022-11-19T22:06:08.206Z,38.95
2022-11-19T22:08:37.729Z,33.88
2022-11-19T22:11:23.700Z,39.05
2022-11-19T22:13:50.765Z,33.45
2022-11-19T22:16:18.008Z,37.20
2022-11-19T22:18:45.145Z,36.70
2022-11-19T22:21:12.232Z,37.42
2022-11-19T22:23:38.934Z,40.55
2022-11-19T22:26:07.235Z,36.97
2022-11-19T22:28:34.311Z,39.72
2022-11-19T22:31:01.173Z,34.45
2022-11-19T22:33:32.353Z,36.38
2022-11-19T22:38:26.731Z,34.55
2022-11-19T22:40:54.526Z,38.22
2022-11-19T22:43:23.097Z,31.88
2022-11-19T22:45:49.950Z,39.38
2022-11-19T22:48:16.695Z,39.97
2022-11-19T22:50:43.434Z,41.58
2022-11-19T22:53:10.261Z,38.75
2022-11-19T22:55:37.562Z,37.97
2022-11-19T22:58:04.597Z,36.20
2022-11-19T23:00:48.366Z,40.30
2022-11-19T23:03:15.405Z,40.00
2022-11-19T23:05:46.509Z,39.30
2022-11-19T23:08:13.182Z,41.75
2022-11-19T23:10:39.835Z,41.72
2022-11-19T23:13:24.736Z,40.65
2022-11-19T23:16:09.179Z,40.17
2022-11-19T23:18:41.712Z,37.38
2022-11-19T23:21:25.924Z,37.40
2022-11-19T23:23:52.817Z,39.05
2022-11-19T23:26:24.819Z,38.28
2022-11-19T23:28:52.815Z,38.83
2022-11-19T23:31:26.195Z,41.95
2022-11-19T23:33:58.593Z,43.58
2022-11-19T23:36:28.647Z,40.17
2022-11-19T23:38:55.435Z,38.90
2022-11-19T23:41:22.565Z,40.03
2022-11-19T23:43:49.513Z,43.42
2022-11-19T23:46:25.051Z,34.45
2022-11-19T23:48:52.787Z,42.80
2022-11-19T23:51:22.269Z,44.47
2022-11-19T23:53:49.197Z,39.97
2022-11-19T23:56:17.341Z,40.80
2022-11-19T23:58:44.214Z,42.55
